sensor_id;sensor_type;location;lat;lon;timestamp;temperature;humidity
6792;DHT22;3433;48.730;9.108;2022-10-16T00:00:36;16.80;99.90
6792;DHT22;3433;48.730;9.108;2022-10-16T00:03:03;16.70;99.90
6792;DHT22;3433;48.730;9.108;2022-10-16T00:05:30;16.80;99.90
6792;DHT22;3433;48.730;9.108;2022-10-16T00:07:57;16.80;99.90
6792;DHT22;3433;48.730;9.108;2022-10-16T00:10:24;16.80;99.90
6792;DHT22;3433;48.730;9.108;2022-10-16T00:12:52;16.70;99.90
6792;DHT22;3433;48.730;9.108;2022-10-16T00:15:19;16.80;99.90
6792;DHT22;3433;48.730;9.108;2022-10-16T00:17:46;16.80;99.90
6792;DHT22;3433;48.730;9.108;2022-10-16T00:20:13;16.90;99.90
6792;DHT22;3433;48.730;9.108;2022-10-16T00:22:40;16.90;99.90
6792;DHT22;3433;48.730;9.108;2022-10-16T00:25:09;16.80;99.90
6792;DHT22;3433;48.730;9.108;2022-10-16T00:27:46;16.80;99.90
6792;DHT22;3433;48.730;9.108;2022-10-16T00:30:16;16.80;99.90
6792;DHT22;3433;48.730;9.108;2022-10-16T00:32:43;16.80;99.90
6792;DHT22;3433;48.730;9.108;2022-10-16T00:35:10;16.70;99.90
6792;DHT22;3433;48.730;9.108;2022-10-16T00:37:37;16.70;99.90
6792;DHT22;3433;48.730;9.108;2022-10-16T00:40:06;16.70;99.90
6792;DHT22;3433;48.730;9.108;2022-10-16T00:42:36;16.60;99.90
6792;DHT22;3433;48.730;9.108;2022-10-16T00:45:04;16.60;99.90
6792;DHT22;3433;48.730;9.108;2022-10-16T00:47:34;16.60;99.90
6792;DHT22;3433;48.730;9.108;2022-10-16T00:50:08;16.60;99.90
6792;DHT22;3433;48.730;9.108;2022-10-16T00:52:36;16.60;99.90
6792;DHT22;3433;48.730;9.108;2022-10-16T00:55:06;16.70;99.90
6792;DHT22;3433;48.730;9.108;2022-10-16T00:59:26;16.70;99.90
6792;DHT22;3433;48.730;9.108;2022-10-16T01:01:56;16.70;99.90
6792;DHT22;3433;48.730;9.108;2022-10-16T01:04:25;16.70;99.90
6792;DHT22;3433;48.730;9.108;2022-10-16T01:06:56;16.70;99.90
6792;DHT22;3433;48.730;9.108;2022-10-16T01:09:30;16.60;99.90
6792;DHT22;3433;48.730;9.108;2022-10-16T01:12:06;16.60;99.90
6792;DHT22;3433;48.730;9.108;2022-10-16T01:14:42;16.60;99.90
6792;DHT22;3433;48.730;9.108;2022-10-16T01:17:14;16.60;99.90
6792;DHT22;3433;48.730;9.108;2022-10-16T01:20:01;16.60;99.90
6792;DHT22;3433;48.730;9.108;2022-10-16T01:22:38;16.60;99.90
6792;DHT22;3433;48.730;9.108;2022-10-16T01:25:09;16.50;99.90
6792;DHT22;3433;48.730;9.108;2022-10-16T01:27:40;16.50;99.90
6792;DHT22;3433;48.730;9.108;2022-10-16T01:30:11;16.50;99.90
6792;DHT22;3433;48.730;9.108;2022-10-16T01:32:41;16.50;99.90
6792;DHT22;3433;48.730;9.108;2022-10-16T01:35:11;16.50;99.90
6792;DHT22;3433;48.730;9.108;2022-10-16T01:37:43;16.40;99.90
6792;DHT22;3433;48.730;9.108;2022-10-16T01:40:15;16.40;99.90
6792;DHT22;3433;48.730;9.108;2022-10-16T01:42:48;16.30;99.90
6792;DHT22;3433;48.730;9.108;2022-10-16T01:45:18;16.30;99.90
6792;DHT22;3433;48.730;9.108;2022-10-16T01:47:47;16.30;99.90
6792;DHT22;3433;48.730;9.108;2022-10-16T01:50:16;16.30;99.90
6792;DHT22;3433;48.730;9.108;2022-10-16T01:52:47;16.30;99.90
6792;DHT22;3433;48.730;9.108;2022-10-16T01:55:18;16.30;99.90
6792;DHT22;3433;48.730;9.108;2022-10-16T01:57:50;16.30;99.90
6792;DHT22;3433;48.730;9.108;2022-10-16T02:00:20;16.20;99.90
6792;DHT22;3433;48.730;9.108;2022-10-16T02:02:50;16.20;99.90
6792;DHT22;3433;48.730;9.108;2022-10-16T02:05:22;16.20;99.90
6792;DHT22;3433;48.730;9.108;2022-10-16T02:07:50;16.20;99.90
6792;DHT22;3433;48.730;9.108;2022-10-16T02:10:17;16.20;99.90
6792;DHT22;3433;48.730;9.108;2022-10-16T02:12:49;16.20;99.90
6792;DHT22;3433;48.730;9.108;2022-10-16T02:15:17;16.20;99.90
6792;DHT22;3433;48.730;9.108;2022-10-16T02:17:46;16.20;99.90
6792;DHT22;3433;48.730;9.108;2022-10-16T02:20:13;16.20;99.90
6792;DHT22;3433;48.730;9.108;2022-10-16T02:22:48;16.30;99.90
6792;DHT22;3433;48.730;9.108;2022-10-16T02:25:22;16.20;99.90
6792;DHT22;3433;48.730;9.108;2022-10-16T02:27:54;16.30;99.90
6792;DHT22;3433;48.730;9.108;2022-10-16T02:30:25;16.30;99.90
6792;DHT22;3433;48.730;9.108;2022-10-16T02:32:55;16.30;99.90
6792;DHT22;3433;48.730;9.108;2022-10-16T02:35:25;16.20;99.90
6792;DHT22;3433;48.730;9.108;2022-10-16T02:37:54;16.30;99.90
6792;DHT22;3433;48.730;9.108;2022-10-16T02:40:22;16.20;99.90
6792;DHT22;3433;48.730;9.108;2022-10-16T02:42:52;16.20;99.90
6792;DHT22;3433;48.730;9.108;2022-10-16T02:45:20;16.30;99.90
6792;DHT22;3433;48.730;9.108;2022-10-16T02:47:47;16.40;99.90
6792;DHT22;3433;48.730;9.108;2022-10-16T02:50:14;16.40;99.90
6792;DHT22;3433;48.730;9.108;2022-10-16T02:52:41;16.30;99.90
6792;DHT22;3433;48.730;9.108;2022-10-16T02:55:08;16.40;99.90
6792;DHT22;3433;48.730;9.108;2022-10-16T02:57:35;16.40;99.90
6792;DHT22;3433;48.730;9.108;2022-10-16T03:00:05;16.50;99.90
6792;DHT22;3433;48.730;9.108;2022-10-16T03:02:32;16.40;99.90
6792;DHT22;3433;48.730;9.108;2022-10-16T03:04:59;16.40;99.90
6792;DHT22;3433;48.730;9.108;2022-10-16T03:07:25;16.40;99.90
6792;DHT22;3433;48.730;9.108;2022-10-16T03:09:52;16.40;99.90
6792;DHT22;3433;48.730;9.108;2022-10-16T03:12:20;16.40;99.90
6792;DHT22;3433;48.730;9.108;2022-10-16T03:14:47;16.40;99.90
6792;DHT22;3433;48.730;9.108;2022-10-16T03:17:15;16.40;99.90
6792;DHT22;3433;48.730;9.108;2022-10-16T03:19:43;16.40;99.90
6792;DHT22;3433;48.730;9.108;2022-10-16T03:22:09;16.40;99.90
6792;DHT22;3433;48.730;9.108;2022-10-16T03:24:36;16.50;99.90
6792;DHT22;3433;48.730;9.108;2022-10-16T03:27:03;16.40;99.90
6792;DHT22;3433;48.730;9.108;2022-10-16T03:29:30;16.40;99.90
6792;DHT22;3433;48.730;9.108;2022-10-16T03:31:58;16.50;99.90
6792;DHT22;3433;48.730;9.108;2022-10-16T03:34:26;16.40;99.90
6792;DHT22;3433;48.730;9.108;2022-10-16T03:36:54;16.40;99.90
6792;DHT22;3433;48.730;9.108;2022-10-16T03:39:20;16.40;99.90
6792;DHT22;3433;48.730;9.108;2022-10-16T03:41:47;16.40;99.90
6792;DHT22;3433;48.730;9.108;2022-10-16T03:44:14;16.40;99.90
6792;DHT22;3433;48.730;9.108;2022-10-16T03:46:41;16.40;99.90
6792;DHT22;3433;48.730;9.108;2022-10-16T03:49:08;16.40;99.90
6792;DHT22;3433;48.730;9.108;2022-10-16T03:51:36;16.40;99.90
6792;DHT22;3433;48.730;9.108;2022-10-16T03:54:03;16.30;99.90
6792;DHT22;3433;48.730;9.108;2022-10-16T03:56:30;16.30;99.90
6792;DHT22;3433;48.730;9.108;2022-10-16T03:58:57;16.20;99.90
6792;DHT22;3433;48.730;9.108;2022-10-16T04:01:24;16.20;99.90
6792;DHT22;3433;48.730;9.108;2022-10-16T04:03:51;16.20;99.90
6792;DHT22;3433;48.730;9.108;2022-10-16T04:06:18;16.10;99.90
6792;DHT22;3433;48.730;9.108;2022-10-16T04:08:46;16.20;99.90
6792;DHT22;3433;48.730;9.108;2022-10-16T04:11:13;16.20;99.90
6792;DHT22;3433;48.730;9.108;2022-10-16T04:13:40;16.10;99.90
6792;DHT22;3433;48.730;9.108;2022-10-16T04:16:07;16.10;99.90
6792;DHT22;3433;48.730;9.108;2022-10-16T04:18:34;16.10;99.90
6792;DHT22;3433;48.730;9.108;2022-10-16T04:21:03;16.10;99.90
6792;DHT22;3433;48.730;9.108;2022-10-16T04:23:30;16.10;99.90
6792;DHT22;3433;48.730;9.108;2022-10-16T04:25:58;16.10;99.90
6792;DHT22;3433;48.730;9.108;2022-10-16T04:28:25;16.10;99.90
6792;DHT22;3433;48.730;9.108;2022-10-16T04:30:52;16.10;99.90
6792;DHT22;3433;48.730;9.108;2022-10-16T04:33:19;16.00;99.90
6792;DHT22;3433;48.730;9.108;2022-10-16T04:35:46;16.10;99.90
6792;DHT22;3433;48.730;9.108;2022-10-16T04:38:13;16.10;99.90
6792;DHT22;3433;48.730;9.108;2022-10-16T04:40:41;16.10;99.90
6792;DHT22;3433;48.730;9.108;2022-10-16T04:43:12;16.10;99.90
6792;DHT22;3433;48.730;9.108;2022-10-16T04:45:39;16.20;99.90
6792;DHT22;3433;48.730;9.108;2022-10-16T04:48:06;16.20;99.90
6792;DHT22;3433;48.730;9.108;2022-10-16T04:50:33;16.30;99.90
6792;DHT22;3433;48.730;9.108;2022-10-16T04:53:00;16.30;99.90
6792;DHT22;3433;48.730;9.108;2022-10-16T04:55:27;16.20;99.90
6792;DHT22;3433;48.730;9.108;2022-10-16T04:57:54;16.30;99.90
6792;DHT22;3433;48.730;9.108;2022-10-16T05:00:22;16.30;99.90
6792;DHT22;3433;48.730;9.108;2022-10-16T05:02:49;16.30;99.90
6792;DHT22;3433;48.730;9.108;2022-10-16T05:05:17;16.40;99.90
6792;DHT22;3433;48.730;9.108;2022-10-16T05:07:45;16.40;99.90
6792;DHT22;3433;48.730;9.108;2022-10-16T05:10:11;16.40;99.90
6792;DHT22;3433;48.730;9.108;2022-10-16T05:12:38;16.40;99.90
6792;DHT22;3433;48.730;9.108;2022-10-16T05:15:06;16.40;99.90
6792;DHT22;3433;48.730;9.108;2022-10-16T05:17:35;16.50;99.90
6792;DHT22;3433;48.730;9.108;2022-10-16T05:20:02;16.50;99.90
6792;DHT22;3433;48.730;9.108;2022-10-16T05:22:29;16.50;99.90
6792;DHT22;3433;48.730;9.108;2022-10-16T05:24:56;16.50;99.90
6792;DHT22;3433;48.730;9.108;2022-10-16T05:27:23;16.50;99.90
6792;DHT22;3433;48.730;9.108;2022-10-16T05:29:50;16.50;99.90
6792;DHT22;3433;48.730;9.108;2022-10-16T05:32:17;16.50;99.90
6792;DHT22;3433;48.730;9.108;2022-10-16T05:34:46;16.50;99.90
6792;DHT22;3433;48.730;9.108;2022-10-16T05:37:13;16.50;99.90
6792;DHT22;3433;48.730;9.108;2022-10-16T05:39:40;16.50;99.90
6792;DHT22;3433;48.730;9.108;2022-10-16T05:42:07;16.50;99.90
6792;DHT22;3433;48.730;9.108;2022-10-16T05:44:34;16.40;99.90
6792;DHT22;3433;48.730;9.108;2022-10-16T05:47:00;16.40;99.90
6792;DHT22;3433;48.730;9.108;2022-10-16T05:49:27;16.30;99.90
6792;DHT22;3433;48.730;9.108;2022-10-16T05:51:56;16.30;99.90
6792;DHT22;3433;48.730;9.108;2022-10-16T05:54:23;16.30;99.90
6792;DHT22;3433;48.730;9.108;2022-10-16T05:56:49;16.30;99.90
6792;DHT22;3433;48.730;9.108;2022-10-16T05:59:16;16.30;99.90
6792;DHT22;3433;48.730;9.108;2022-10-16T06:01:43;16.30;99.90
6792;DHT22;3433;48.730;9.108;2022-10-16T06:04:10;16.20;99.90
6792;DHT22;3433;48.730;9.108;2022-10-16T06:06:37;16.20;99.90
6792;DHT22;3433;48.730;9.108;2022-10-16T06:09:05;16.20;99.90
6792;DHT22;3433;48.730;9.108;2022-10-16T06:11:32;16.20;99.90
6792;DHT22;3433;48.730;9.108;2022-10-16T06:14:01;16.20;99.90
6792;DHT22;3433;48.730;9.108;2022-10-16T06:16:32;16.10;99.90
6792;DHT22;3433;48.730;9.108;2022-10-16T06:18:59;16.20;99.90
6792;DHT22;3433;48.730;9.108;2022-10-16T06:21:27;16.20;99.90
6792;DHT22;3433;48.730;9.108;2022-10-16T06:23:55;16.20;99.90
6792;DHT22;3433;48.730;9.108;2022-10-16T06:26:26;16.20;99.90
6792;DHT22;3433;48.730;9.108;2022-10-16T06:28:54;16.30;99.90
6792;DHT22;3433;48.730;9.108;2022-10-16T06:31:22;16.30;99.90
6792;DHT22;3433;48.730;9.108;2022-10-16T06:33:54;16.30;99.90
6792;DHT22;3433;48.730;9.108;2022-10-16T06:36:22;16.30;99.90
6792;DHT22;3433;48.730;9.108;2022-10-16T06:38:49;16.40;99.90
6792;DHT22;3433;48.730;9.108;2022-10-16T06:41:17;16.40;99.90
6792;DHT22;3433;48.730;9.108;2022-10-16T06:43:47;16.40;99.90
6792;DHT22;3433;48.730;9.108;2022-10-16T06:46:16;16.40;99.90
6792;DHT22;3433;48.730;9.108;2022-10-16T06:48:43;16.50;99.90
6792;DHT22;3433;48.730;9.108;2022-10-16T06:51:11;16.50;99.90
6792;DHT22;3433;48.730;9.108;2022-10-16T06:53:40;16.60;99.90
6792;DHT22;3433;48.730;9.108;2022-10-16T06:56:08;16.70;99.90
6792;DHT22;3433;48.730;9.108;2022-10-16T06:58:35;16.80;99.90
6792;DHT22;3433;48.730;9.108;2022-10-16T07:01:04;16.70;99.90
6792;DHT22;3433;48.730;9.108;2022-10-16T07:03:31;16.70;99.90
6792;DHT22;3433;48.730;9.108;2022-10-16T07:06:01;16.70;99.90
6792;DHT22;3433;48.730;9.108;2022-10-16T07:08:30;16.80;99.90
6792;DHT22;3433;48.730;9.108;2022-10-16T07:10:59;16.90;99.90
6792;DHT22;3433;48.730;9.108;2022-10-16T07:13:26;17.00;99.90
6792;DHT22;3433;48.730;9.108;2022-10-16T07:15:53;16.90;99.90
6792;DHT22;3433;48.730;9.108;2022-10-16T07:18:21;16.90;99.90
6792;DHT22;3433;48.730;9.108;2022-10-16T07:20:52;17.00;99.90
6792;DHT22;3433;48.730;9.108;2022-10-16T07:23:19;16.90;99.90
6792;DHT22;3433;48.730;9.108;2022-10-16T07:25:46;17.00;99.90
6792;DHT22;3433;48.730;9.108;2022-10-16T07:28:19;17.00;99.90
6792;DHT22;3433;48.730;9.108;2022-10-16T07:30:46;17.00;99.90
6792;DHT22;3433;48.730;9.108;2022-10-16T07:33:13;17.00;99.90
6792;DHT22;3433;48.730;9.108;2022-10-16T07:35:49;17.10;99.90
6792;DHT22;3433;48.730;9.108;2022-10-16T07:38:16;17.00;99.90
6792;DHT22;3433;48.730;9.108;2022-10-16T07:40:43;17.00;99.90
6792;DHT22;3433;48.730;9.108;2022-10-16T07:43:10;17.00;99.90
6792;DHT22;3433;48.730;9.108;2022-10-16T07:45:37;17.20;99.90
6792;DHT22;3433;48.730;9.108;2022-10-16T07:48:05;17.20;99.90
6792;DHT22;3433;48.730;9.108;2022-10-16T07:50:31;17.20;99.90
6792;DHT22;3433;48.730;9.108;2022-10-16T07:53:01;17.20;99.90
6792;DHT22;3433;48.730;9.108;2022-10-16T07:55:28;17.20;99.90
6792;DHT22;3433;48.730;9.108;2022-10-16T07:57:55;17.30;99.90
6792;DHT22;3433;48.730;9.108;2022-10-16T08:00:22;17.30;99.90
6792;DHT22;3433;48.730;9.108;2022-10-16T08:02:49;17.30;99.90
6792;DHT22;3433;48.730;9.108;2022-10-16T08:05:16;17.30;99.90
6792;DHT22;3433;48.730;9.108;2022-10-16T08:07:47;17.30;99.90
6792;DHT22;3433;48.730;9.108;2022-10-16T08:10:17;17.40;99.90
6792;DHT22;3433;48.730;9.108;2022-10-16T08:12:47;17.40;99.90
6792;DHT22;3433;48.730;9.108;2022-10-16T08:15:14;17.40;99.90
6792;DHT22;3433;48.730;9.108;2022-10-16T08:17:41;17.40;99.90
6792;DHT22;3433;48.730;9.108;2022-10-16T08:20:09;17.70;99.90
6792;DHT22;3433;48.730;9.108;2022-10-16T08:22:36;17.70;99.90
6792;DHT22;3433;48.730;9.108;2022-10-16T08:25:03;17.70;99.90
6792;DHT22;3433;48.730;9.108;2022-10-16T08:27:33;17.80;99.90
6792;DHT22;3433;48.730;9.108;2022-10-16T08:30:00;17.80;99.90
6792;DHT22;3433;48.730;9.108;2022-10-16T08:32:27;17.90;99.90
6792;DHT22;3433;48.730;9.108;2022-10-16T08:34:54;17.90;99.90
6792;DHT22;3433;48.730;9.108;2022-10-16T08:37:21;18.10;99.90
6792;DHT22;3433;48.730;9.108;2022-10-16T08:39:48;18.10;99.90
6792;DHT22;3433;48.730;9.108;2022-10-16T08:42:34;18.20;99.90
6792;DHT22;3433;48.730;9.108;2022-10-16T08:45:23;18.30;99.90
6792;DHT22;3433;48.730;9.108;2022-10-16T08:48:00;18.40;99.90
6792;DHT22;3433;48.730;9.108;2022-10-16T08:50:32;18.30;99.90
6792;DHT22;3433;48.730;9.108;2022-10-16T08:52:59;18.40;99.90
6792;DHT22;3433;48.730;9.108;2022-10-16T08:55:31;18.40;99.90
6792;DHT22;3433;48.730;9.108;2022-10-16T08:58:01;18.50;99.90
6792;DHT22;3433;48.730;9.108;2022-10-16T09:00:28;18.60;99.90
6792;DHT22;3433;48.730;9.108;2022-10-16T09:03:04;18.70;99.90
6792;DHT22;3433;48.730;9.108;2022-10-16T09:06:00;18.80;99.90
6792;DHT22;3433;48.730;9.108;2022-10-16T09:08:37;18.90;99.90
6792;DHT22;3433;48.730;9.108;2022-10-16T09:11:10;19.00;99.90
6792;DHT22;3433;48.730;9.108;2022-10-16T09:13:48;19.10;99.90
6792;DHT22;3433;48.730;9.108;2022-10-16T09:16:19;19.20;99.90
6792;DHT22;3433;48.730;9.108;2022-10-16T09:18:56;19.10;99.90
6792;DHT22;3433;48.730;9.108;2022-10-16T09:21:27;19.30;99.90
6792;DHT22;3433;48.730;9.108;2022-10-16T09:23:58;19.50;99.90
6792;DHT22;3433;48.730;9.108;2022-10-16T09:26:26;19.50;99.90
6792;DHT22;3433;48.730;9.108;2022-10-16T09:28:54;19.50;99.90
6792;DHT22;3433;48.730;9.108;2022-10-16T09:31:22;19.50;99.90
6792;DHT22;3433;48.730;9.108;2022-10-16T09:33:52;19.60;99.90
6792;DHT22;3433;48.730;9.108;2022-10-16T09:36:20;19.90;99.90
6792;DHT22;3433;48.730;9.108;2022-10-16T09:38:48;20.00;99.90
6792;DHT22;3433;48.730;9.108;2022-10-16T09:41:18;19.90;99.90
6792;DHT22;3433;48.730;9.108;2022-10-16T09:43:52;19.90;99.90
6792;DHT22;3433;48.730;9.108;2022-10-16T09:46:25;20.10;99.90
6792;DHT22;3433;48.730;9.108;2022-10-16T09:48:55;20.20;99.90
6792;DHT22;3433;48.730;9.108;2022-10-16T09:51:25;20.60;99.90
6792;DHT22;3433;48.730;9.108;2022-10-16T09:53:55;20.80;99.90
6792;DHT22;3433;48.730;9.108;2022-10-16T09:56:25;20.70;99.90
6792;DHT22;3433;48.730;9.108;2022-10-16T09:58:53;20.70;99.90
6792;DHT22;3433;48.730;9.108;2022-10-16T10:01:22;20.60;99.90
6792;DHT22;3433;48.730;9.108;2022-10-16T10:03:55;20.90;99.90
6792;DHT22;3433;48.730;9.108;2022-10-16T10:06:29;21.10;99.90
6792;DHT22;3433;48.730;9.108;2022-10-16T10:08:59;21.10;99.90
6792;DHT22;3433;48.730;9.108;2022-10-16T10:11:44;21.30;99.90
6792;DHT22;3433;48.730;9.108;2022-10-16T10:14:20;21.30;99.90
6792;DHT22;3433;48.730;9.108;2022-10-16T10:16:50;21.40;99.90
6792;DHT22;3433;48.730;9.108;2022-10-16T10:19:19;21.50;99.90
6792;DHT22;3433;48.730;9.108;2022-10-16T10:21:47;21.90;99.90
6792;DHT22;3433;48.730;9.108;2022-10-16T10:24:15;21.90;99.90
6792;DHT22;3433;48.730;9.108;2022-10-16T10:26:49;22.10;99.90
6792;DHT22;3433;48.730;9.108;2022-10-16T10:29:32;22.00;99.90
6792;DHT22;3433;48.730;9.108;2022-10-16T10:32:12;22.00;99.90
6792;DHT22;3433;48.730;9.108;2022-10-16T10:34:56;22.10;99.90
6792;DHT22;3433;48.730;9.108;2022-10-16T10:37:41;22.20;99.90
6792;DHT22;3433;48.730;9.108;2022-10-16T10:40:20;22.30;99.90
6792;DHT22;3433;48.730;9.108;2022-10-16T10:42:53;22.30;99.90
6792;DHT22;3433;48.730;9.108;2022-10-16T10:45:26;22.50;99.90
6792;DHT22;3433;48.730;9.108;2022-10-16T10:48:10;22.70;99.90
6792;DHT22;3433;48.730;9.108;2022-10-16T10:50:43;22.70;99.90
6792;DHT22;3433;48.730;9.108;2022-10-16T10:53:21;23.00;99.90
6792;DHT22;3433;48.730;9.108;2022-10-16T10:55:57;23.30;99.90
6792;DHT22;3433;48.730;9.108;2022-10-16T11:01:31;23.70;99.90
6792;DHT22;3433;48.730;9.108;2022-10-16T11:07:02;24.40;99.90
6792;DHT22;3433;48.730;9.108;2022-10-16T11:09:34;24.70;99.90
6792;DHT22;3433;48.730;9.108;2022-10-16T11:12:11;24.90;99.90
6792;DHT22;3433;48.730;9.108;2022-10-16T11:14:45;24.70;99.90
6792;DHT22;3433;48.730;9.108;2022-10-16T11:17:16;24.60;99.90
6792;DHT22;3433;48.730;9.108;2022-10-16T11:19:49;24.50;99.90
6792;DHT22;3433;48.730;9.108;2022-10-16T11:22:20;24.40;99.90
6792;DHT22;3433;48.730;9.108;2022-10-16T11:24:54;24.30;99.90
6792;DHT22;3433;48.730;9.108;2022-10-16T11:27:27;24.10;99.90
6792;DHT22;3433;48.730;9.108;2022-10-16T11:29:59;24.00;99.90
6792;DHT22;3433;48.730;9.108;2022-10-16T11:32:32;23.90;99.90
6792;DHT22;3433;48.730;9.108;2022-10-16T11:35:08;24.00;99.90
6792;DHT22;3433;48.730;9.108;2022-10-16T11:37:41;24.40;99.90
6792;DHT22;3433;48.730;9.108;2022-10-16T11:40:19;24.20;99.90
6792;DHT22;3433;48.730;9.108;2022-10-16T11:42:51;24.30;99.90
6792;DHT22;3433;48.730;9.108;2022-10-16T11:45:28;24.60;99.90
6792;DHT22;3433;48.730;9.108;2022-10-16T11:48:01;24.80;99.90
6792;DHT22;3433;48.730;9.108;2022-10-16T11:50:33;24.90;99.90
6792;DHT22;3433;48.730;9.108;2022-10-16T11:53:04;25.00;99.90
6792;DHT22;3433;48.730;9.108;2022-10-16T11:55:37;25.30;99.90
6792;DHT22;3433;48.730;9.108;2022-10-16T11:58:08;25.50;99.90
6792;DHT22;3433;48.730;9.108;2022-10-16T12:00:42;25.70;99.90
6792;DHT22;3433;48.730;9.108;2022-10-16T12:03:17;25.80;99.90
6792;DHT22;3433;48.730;9.108;2022-10-16T12:06:12;25.80;99.90
6792;DHT22;3433;48.730;9.108;2022-10-16T12:08:41;26.20;99.90
6792;DHT22;3433;48.730;9.108;2022-10-16T12:11:23;26.20;99.90
6792;DHT22;3433;48.730;9.108;2022-10-16T12:13:51;26.60;99.90
6792;DHT22;3433;48.730;9.108;2022-10-16T12:16:23;26.90;99.90
6792;DHT22;3433;48.730;9.108;2022-10-16T12:19:03;27.20;99.90
6792;DHT22;3433;48.730;9.108;2022-10-16T12:21:37;27.40;99.90
6792;DHT22;3433;48.730;9.108;2022-10-16T12:24:05;27.50;99.90
6792;DHT22;3433;48.730;9.108;2022-10-16T12:26:34;27.50;99.90
6792;DHT22;3433;48.730;9.108;2022-10-16T12:29:14;27.70;99.90
6792;DHT22;3433;48.730;9.108;2022-10-16T12:31:48;27.70;98.80
6792;DHT22;3433;48.730;9.108;2022-10-16T12:34:21;27.60;99.90
6792;DHT22;3433;48.730;9.108;2022-10-16T12:36:51;27.60;99.90
6792;DHT22;3433;48.730;9.108;2022-10-16T12:39:21;27.50;99.90
6792;DHT22;3433;48.730;9.108;2022-10-16T12:42:00;27.60;99.90
6792;DHT22;3433;48.730;9.108;2022-10-16T12:44:32;27.40;99.90
6792;DHT22;3433;48.730;9.108;2022-10-16T12:47:00;27.30;99.90
6792;DHT22;3433;48.730;9.108;2022-10-16T12:49:32;27.00;99.90
6792;DHT22;3433;48.730;9.108;2022-10-16T12:52:03;26.70;99.90
6792;DHT22;3433;48.730;9.108;2022-10-16T12:54:34;26.50;99.90
6792;DHT22;3433;48.730;9.108;2022-10-16T12:57:19;26.30;99.90
6792;DHT22;3433;48.730;9.108;2022-10-16T12:59:56;26.20;99.90
6792;DHT22;3433;48.730;9.108;2022-10-16T13:05:32;25.90;99.90
6792;DHT22;3433;48.730;9.108;2022-10-16T13:08:17;25.80;99.90
6792;DHT22;3433;48.730;9.108;2022-10-16T13:10:55;25.60;99.90
6792;DHT22;3433;48.730;9.108;2022-10-16T13:13:54;25.40;99.90
6792;DHT22;3433;48.730;9.108;2022-10-16T13:19:08;25.30;99.90
6792;DHT22;3433;48.730;9.108;2022-10-16T13:21:46;25.10;99.90
6792;DHT22;3433;48.730;9.108;2022-10-16T13:24:23;25.00;99.90
6792;DHT22;3433;48.730;9.108;2022-10-16T13:26:55;24.90;99.90
6792;DHT22;3433;48.730;9.108;2022-10-16T13:29:24;24.80;99.90
6792;DHT22;3433;48.730;9.108;2022-10-16T13:31:56;24.70;99.90
6792;DHT22;3433;48.730;9.108;2022-10-16T13:34:23;24.70;99.90
6792;DHT22;3433;48.730;9.108;2022-10-16T13:36:51;24.70;99.90
6792;DHT22;3433;48.730;9.108;2022-10-16T13:39:23;24.70;99.90
6792;DHT22;3433;48.730;9.108;2022-10-16T13:42:05;24.60;99.90
6792;DHT22;3433;48.730;9.108;2022-10-16T13:44:36;24.50;99.90
6792;DHT22;3433;48.730;9.108;2022-10-16T13:47:05;24.50;99.90
6792;DHT22;3433;48.730;9.108;2022-10-16T13:49:32;24.50;99.90
6792;DHT22;3433;48.730;9.108;2022-10-16T13:52:00;24.50;99.90
6792;DHT22;3433;48.730;9.108;2022-10-16T13:54:28;24.40;99.90
6792;DHT22;3433;48.730;9.108;2022-10-16T13:56:55;24.40;99.90
6792;DHT22;3433;48.730;9.108;2022-10-16T13:59:24;24.40;99.90
6792;DHT22;3433;48.730;9.108;2022-10-16T14:01:52;24.40;99.90
6792;DHT22;3433;48.730;9.108;2022-10-16T14:04:20;24.40;99.90
6792;DHT22;3433;48.730;9.108;2022-10-16T14:06:51;24.40;99.90
6792;DHT22;3433;48.730;9.108;2022-10-16T14:09:22;24.30;99.90
6792;DHT22;3433;48.730;9.108;2022-10-16T14:11:56;24.20;99.90
6792;DHT22;3433;48.730;9.108;2022-10-16T14:14:25;24.10;99.90
6792;DHT22;3433;48.730;9.108;2022-10-16T14:16:53;24.10;99.90
6792;DHT22;3433;48.730;9.108;2022-10-16T14:19:22;24.00;99.90
6792;DHT22;3433;48.730;9.108;2022-10-16T14:21:50;23.90;99.90
6792;DHT22;3433;48.730;9.108;2022-10-16T14:24:27;23.90;99.90
6792;DHT22;3433;48.730;9.108;2022-10-16T14:26:55;23.80;99.90
6792;DHT22;3433;48.730;9.108;2022-10-16T14:29:23;23.80;99.90
6792;DHT22;3433;48.730;9.108;2022-10-16T14:31:55;23.80;99.90
6792;DHT22;3433;48.730;9.108;2022-10-16T14:34:24;23.70;99.90
6792;DHT22;3433;48.730;9.108;2022-10-16T14:36:53;23.70;99.90
6792;DHT22;3433;48.730;9.108;2022-10-16T14:39:21;23.50;99.90
6792;DHT22;3433;48.730;9.108;2022-10-16T14:41:50;23.50;99.90
6792;DHT22;3433;48.730;9.108;2022-10-16T14:44:20;23.50;99.90
6792;DHT22;3433;48.730;9.108;2022-10-16T14:46:49;23.50;99.90
6792;DHT22;3433;48.730;9.108;2022-10-16T14:49:18;23.50;99.90
6792;DHT22;3433;48.730;9.108;2022-10-16T14:51:46;23.60;99.90
6792;DHT22;3433;48.730;9.108;2022-10-16T14:54:15;23.60;99.90
6792;DHT22;3433;48.730;9.108;2022-10-16T14:56:46;23.70;99.90
6792;DHT22;3433;48.730;9.108;2022-10-16T14:59:16;23.80;99.90
6792;DHT22;3433;48.730;9.108;2022-10-16T15:01:46;23.80;99.90
6792;DHT22;3433;48.730;9.108;2022-10-16T15:04:14;23.70;99.90
6792;DHT22;3433;48.730;9.108;2022-10-16T15:06:41;23.70;99.90
6792;DHT22;3433;48.730;9.108;2022-10-16T15:09:08;23.60;99.90
6792;DHT22;3433;48.730;9.108;2022-10-16T15:11:35;23.50;99.90
6792;DHT22;3433;48.730;9.108;2022-10-16T15:14:03;23.50;99.90
6792;DHT22;3433;48.730;9.108;2022-10-16T15:16:30;23.20;99.90
6792;DHT22;3433;48.730;9.108;2022-10-16T15:18:58;23.30;99.90
6792;DHT22;3433;48.730;9.108;2022-10-16T15:21:27;23.30;99.90
6792;DHT22;3433;48.730;9.108;2022-10-16T15:23:55;23.30;99.90
6792;DHT22;3433;48.730;9.108;2022-10-16T15:26:23;23.20;99.90
6792;DHT22;3433;48.730;9.108;2022-10-16T15:28:50;23.20;99.90
6792;DHT22;3433;48.730;9.108;2022-10-16T15:31:17;23.20;99.90
6792;DHT22;3433;48.730;9.108;2022-10-16T15:33:44;23.10;99.90
6792;DHT22;3433;48.730;9.108;2022-10-16T15:36:24;23.00;99.90
6792;DHT22;3433;48.730;9.108;2022-10-16T15:38:52;22.90;99.90
6792;DHT22;3433;48.730;9.108;2022-10-16T15:41:19;22.80;99.90
6792;DHT22;3433;48.730;9.108;2022-10-16T15:43:48;22.80;99.90
6792;DHT22;3433;48.730;9.108;2022-10-16T15:46:17;22.70;99.90
6792;DHT22;3433;48.730;9.108;2022-10-16T15:48:44;22.70;99.90
6792;DHT22;3433;48.730;9.108;2022-10-16T15:51:11;22.60;99.90
6792;DHT22;3433;48.730;9.108;2022-10-16T15:53:39;22.50;99.90
6792;DHT22;3433;48.730;9.108;2022-10-16T15:56:07;22.40;99.90
6792;DHT22;3433;48.730;9.108;2022-10-16T15:58:34;22.30;99.90
6792;DHT22;3433;48.730;9.108;2022-10-16T16:01:03;22.10;99.90
6792;DHT22;3433;48.730;9.108;2022-10-16T16:03:31;22.10;99.90
6792;DHT22;3433;48.730;9.108;2022-10-16T16:06:03;22.00;99.90
6792;DHT22;3433;48.730;9.108;2022-10-16T16:08:30;22.00;99.90
6792;DHT22;3433;48.730;9.108;2022-10-16T16:10:59;22.00;99.90
6792;DHT22;3433;48.730;9.108;2022-10-16T16:13:26;22.00;99.90
6792;DHT22;3433;48.730;9.108;2022-10-16T16:15:53;22.00;99.90
6792;DHT22;3433;48.730;9.108;2022-10-16T16:18:21;21.90;99.90
6792;DHT22;3433;48.730;9.108;2022-10-16T16:20:49;21.90;99.90
6792;DHT22;3433;48.730;9.108;2022-10-16T16:23:16;21.80;99.90
6792;DHT22;3433;48.730;9.108;2022-10-16T16:25:43;21.70;99.90
6792;DHT22;3433;48.730;9.108;2022-10-16T16:28:11;21.60;99.90
6792;DHT22;3433;48.730;9.108;2022-10-16T16:30:39;21.50;99.90
6792;DHT22;3433;48.730;9.108;2022-10-16T16:33:06;21.40;99.90